createdAt,value
2024-01-05T00:00:14.932Z,21.88
2024-01-05T00:03:02.194Z,19.58
2024-01-05T00:05:29.789Z,18.02
2024-01-05T00:07:57.963Z,23.58
2024-01-05T00:10:25.470Z,22.02
2024-01-05T00:12:52.677Z,21.75
2024-01-05T00:15:20.253Z,22.83
2024-01-05T00:17:48.470Z,19.75
2024-01-05T00:20:17.492Z,19.13
2024-01-05T00:22:44.473Z,19.05
2024-01-05T00:25:11.732Z,23.77
2024-01-05T00:27:38.828Z,19.20
2024-01-05T00:30:06.601Z,18.63
2024-01-05T00:32:33.751Z,20.60
2024-01-05T00:35:01.058Z,17.88
2024-01-05T00:37:28.054Z,20.88
2024-01-05T00:39:55.341Z,17.40
2024-01-05T00:42:22.327Z,20.88
2024-01-05T00:44:49.576Z,23.08
2024-01-05T00:47:16.637Z,20.77
2024-01-05T00:49:44.042Z,22.55
2024-01-05T00:52:11.039Z,20.73
2024-01-05T00:54:38.399Z,19.27
2024-01-05T00:57:05.955Z,20.27
2024-01-05T00:59:34.220Z,21.00
2024-01-05T01:02:01.230Z,19.25
2024-01-05T01:04:29.171Z,19.23
2024-01-05T01:06:56.134Z,17.40
2024-01-05T01:09:23.499Z,18.17
2024-01-05T01:11:51.671Z,18.55
2024-01-05T01:14:19.450Z,24.45
2024-01-05T01:16:46.367Z,23.05
2024-01-05T01:19:13.832Z,15.57
2024-01-05T01:21:41.142Z,16.33
2024-01-05T01:24:08.561Z,18.00
2024-01-05T01:26:35.747Z,14.07
2024-01-05T01:29:03.054Z,20.88
2024-01-05T01:31:32.772Z,20.45
2024-01-05T01:34:00.159Z,20.35
2024-01-05T01:36:28.651Z,20.40
2024-01-05T01:38:56.046Z,19.27
2024-01-05T01:41:23.487Z,18.38
2024-01-05T01:43:53.369Z,21.13
2024-01-05T01:46:21.289Z,19.67
2024-01-05T01:48:49.083Z,23.38
2024-01-05T01:51:16.255Z,20.42
2024-01-05T01:53:44.133Z,20.33
2024-01-05T01:56:12.780Z,22.25
2024-01-05T01:58:40.276Z,15.50
2024-01-05T02:01:07.699Z,20.05
2024-01-05T02:03:35.773Z,18.88
2024-01-05T02:06:03.039Z,22.30
2024-01-05T02:08:30.622Z,19.42
2024-01-05T02:10:57.715Z,21.85
2024-01-05T02:13:25.026Z,17.30
2024-01-05T02:15:52.286Z,18.98
2024-01-05T02:18:20.069Z,17.23
2024-01-05T02:20:48.312Z,15.57
2024-01-05T02:23:21.994Z,16.92
2024-01-05T02:25:49.165Z,21.25
2024-01-05T02:28:16.677Z,19.38
2024-01-05T02:30:43.809Z,17.38
2024-01-05T02:33:11.229Z,15.90
2024-01-05T02:35:38.257Z,14.70
2024-01-05T02:38:06.386Z,21.00
2024-01-05T02:40:33.532Z,23.92
2024-01-05T02:43:00.882Z,27.67
2024-01-05T02:45:28.038Z,19.17
2024-01-05T02:47:55.416Z,20.85
2024-01-05T02:50:22.587Z,20.77
2024-01-05T02:52:49.861Z,17.92
2024-01-05T02:55:16.873Z,18.63
2024-01-05T02:57:44.152Z,16.80
2024-01-05T03:00:11.505Z,21.70
2024-01-05T03:02:38.854Z,35.10
2024-01-05T03:05:07.013Z,36.35
2024-01-05T03:07:34.430Z,35.22
2024-01-05T03:10:01.370Z,27.73
2024-01-05T03:12:28.983Z,27.23
2024-01-05T03:14:56.322Z,25.60
2024-01-05T03:17:23.596Z,23.02
2024-01-05T03:19:50.564Z,27.55
2024-01-05T03:22:18.019Z,30.50
2024-01-05T03:24:45.300Z,26.77
2024-01-05T03:27:14.546Z,27.02
2024-01-05T03:29:41.989Z,32.60
2024-01-05T03:32:10.442Z,23.50
2024-01-05T03:34:38.480Z,24.75
2024-01-05T03:37:05.940Z,23.90
2024-01-05T03:39:33.007Z,36.92
2024-01-05T03:42:00.475Z,25.05
2024-01-05T03:44:27.565Z,29.42
2024-01-05T03:46:54.753Z,29.60
2024-01-05T03:49:21.886Z,27.00
2024-01-05T03:51:50.804Z,25.65
2024-01-05T03:54:18.116Z,22.67
2024-01-05T03:56:49.817Z,26.20
2024-01-05T03:59:23.540Z,22.25
2024-01-05T04:04:34.274Z,22.00
2024-01-05T04:07:04.303Z,23.98
2024-01-05T04:09:33.632Z,28.77
2024-01-05T04:12:04.332Z,47.75
2024-01-05T04:14:35.404Z,40.25
2024-01-05T04:17:05.689Z,30.67
2024-01-05T04:22:00.959Z,31.27
2024-01-05T04:24:28.809Z,36.75
2024-01-05T04:26:56.109Z,39.50
2024-01-05T04:29:23.096Z,22.00
2024-01-05T04:31:50.856Z,33.42
2024-01-05T04:34:17.902Z,25.92
2024-01-05T04:36:45.927Z,31.08
2024-01-05T04:39:13.869Z,27.70
2024-01-05T04:41:41.497Z,33.85
2024-01-05T04:44:08.903Z,29.95
2024-01-05T04:46:36.858Z,33.22
2024-01-05T04:49:03.770Z,30.88
2024-01-05T04:54:05.087Z,29.25
2024-01-05T04:56:35.928Z,31.67
2024-01-05T04:59:02.932Z,33.05
2024-01-05T05:16:19.450Z,30.63
2024-01-05T05:19:04.596Z,30.20
2024-01-05T05:22:02.452Z,37.33
2024-01-05T05:33:27.047Z,25.08
2024-01-05T05:38:39.170Z,31.90
2024-01-05T05:41:09.290Z,41.83
2024-01-05T05:43:36.263Z,73.05
2024-01-05T05:46:03.683Z,51.47
2024-01-05T05:48:31.009Z,36.25
2024-01-05T05:50:58.779Z,27.15
2024-01-05T05:53:28.925Z,27.77
2024-01-05T05:55:56.479Z,31.80
2024-01-05T05:58:24.689Z,42.10
2024-01-05T06:00:52.456Z,44.00
2024-01-05T06:03:19.824Z,48.92
2024-01-05T06:05:47.675Z,47.22
2024-01-05T06:08:14.943Z,49.75
2024-01-05T06:10:42.313Z,57.28
2024-01-05T06:13:10.378Z,65.13
2024-01-05T06:15:37.846Z,48.90
2024-01-05T06:18:05.362Z,122.43
2024-01-05T06:20:32.818Z,57.55
2024-01-05T06:22:59.809Z,72.57
2024-01-05T06:25:27.399Z,41.53
2024-01-05T06:27:54.606Z,61.50
2024-01-05T06:30:24.576Z,41.92
2024-01-05T06:32:51.955Z,31.33
2024-01-05T06:35:19.752Z,41.05
2024-01-05T06:37:47.377Z,30.67
2024-01-05T06:40:16.324Z,21.88
2024-01-05T06:42:43.411Z,23.42
2024-01-05T06:45:13.173Z,23.60
2024-01-05T06:47:40.388Z,26.42
2024-01-05T06:50:09.077Z,21.10
2024-01-05T06:52:36.759Z,20.23
2024-01-05T06:55:04.691Z,24.50
2024-01-05T06:57:33.558Z,22.10
2024-01-05T07:00:01.183Z,22.33
2024-01-05T07:02:30.026Z,22.42
2024-01-05T07:04:57.439Z,18.13
2024-01-05T07:07:24.485Z,19.20
2024-01-05T07:09:52.038Z,16.95
2024-01-05T07:12:19.824Z,14.38
2024-01-05T07:14:50.349Z,14.80
2024-01-05T07:17:17.728Z,10.88
2024-01-05T07:19:45.096Z,10.05
2024-01-05T07:22:13.101Z,10.48
2024-01-05T07:24:42.381Z,14.60
2024-01-05T07:27:11.879Z,17.60
2024-01-05T07:32:09.448Z,9.20
2024-01-05T07:34:37.223Z,8.13
2024-01-05T07:37:05.009Z,11.88
2024-01-05T07:39:36.779Z,8.88
2024-01-05T07:42:08.126Z,11.95
2024-01-05T07:44:36.265Z,10.35
2024-01-05T07:47:03.461Z,12.38
2024-01-05T07:49:31.300Z,8.52
2024-01-05T07:51:58.549Z,10.93
2024-01-05T07:54:26.076Z,12.18
2024-01-05T07:56:53.108Z,10.20
2024-01-05T07:59:21.053Z,14.18
2024-01-05T08:01:52.472Z,12.80
2024-01-05T08:04:24.266Z,11.60
2024-01-05T08:06:53.961Z,8.25
2024-01-05T08:09:22.176Z,8.07
2024-01-05T08:11:49.264Z,7.45
2024-01-05T08:14:18.509Z,8.52
2024-01-05T08:16:45.675Z,7.28
2024-01-05T08:19:14.631Z,8.75
2024-01-05T08:21:43.623Z,9.45
2024-01-05T08:24:12.213Z,8.20
2024-01-05T08:26:40.733Z,7.00
2024-01-05T08:29:08.393Z,8.82
2024-01-05T08:31:37.832Z,7.00
2024-01-05T08:34:05.736Z,4.50
2024-01-05T08:36:33.042Z,6.50
2024-01-05T08:39:00.625Z,4.80
2024-01-05T08:41:33.409Z,5.88
2024-01-05T08:44:03.621Z,3.97
2024-01-05T08:46:31.090Z,7.13
2024-01-05T08:48:59.148Z,7.68
2024-01-05T08:51:26.550Z,6.35
2024-01-05T08:53:57.274Z,7.22
2024-01-05T08:56:25.461Z,9.85
2024-01-05T08:58:53.061Z,6.45
2024-01-05T09:01:22.342Z,10.30
2024-01-05T09:10:22.377Z,6.78
2024-01-05T09:13:14.383Z,4.55
2024-01-05T10:11:14.208Z,3.78
2024-01-05T10:18:02.427Z,3.53
2024-01-05T10:35:26.890Z,4.50
2024-01-05T10:56:09.953Z,4.95
2024-01-05T11:02:41.001Z,6.25
2024-01-05T11:05:15.053Z,7.40
2024-01-05T11:07:43.511Z,2.95
2024-01-05T11:25:34.593Z,7.45
2024-01-05T11:32:42.683Z,7.50
2024-01-05T11:56:03.340Z,4.57
2024-01-05T12:02:45.715Z,9.48
2024-01-05T12:20:10.333Z,4.78
2024-01-05T12:23:39.265Z,9.35
2024-01-05T13:02:10.530Z,4.25
2024-01-05T13:04:41.975Z,4.72
2024-01-05T13:07:15.566Z,14.70
2024-01-05T13:15:38.451Z,4.57
2024-01-05T13:18:07.831Z,7.07
2024-01-05T13:20:35.653Z,5.13
2024-01-05T13:23:05.482Z,5.38
2024-01-05T13:25:33.002Z,8.82
2024-01-05T13:28:00.102Z,6.13
2024-01-05T13:30:47.716Z,5.95
2024-01-05T13:33:27.023Z,8.65
2024-01-05T13:38:45.877Z,6.50
2024-01-05T13:41:14.598Z,7.30
2024-01-05T13:43:43.581Z,5.97
2024-01-05T13:46:10.619Z,5.47
2024-01-05T13:48:38.365Z,11.02
2024-01-05T13:51:06.369Z,8.20
2024-01-05T13:53:35.551Z,6.95
2024-01-05T13:56:03.772Z,6.95
2024-01-05T13:58:49.188Z,8.80
2024-01-05T14:01:18.118Z,5.00
2024-01-05T14:03:47.509Z,6.15
2024-01-05T14:06:15.367Z,5.68
2024-01-05T14:08:43.010Z,8.13
2024-01-05T14:14:00.833Z,10.23
2024-01-05T14:16:28.123Z,6.53
2024-01-05T14:18:56.361Z,7.40
2024-01-05T14:21:27.360Z,5.60
2024-01-05T14:24:00.596Z,9.00
2024-01-05T14:26:29.568Z,5.22
2024-01-05T14:28:57.587Z,9.23
2024-01-05T14:31:32.921Z,7.45
2024-01-05T14:34:01.668Z,5.40
2024-01-05T14:36:32.433Z,13.50
2024-01-05T14:39:00.300Z,6.63
2024-01-05T14:41:29.653Z,7.82
2024-01-05T14:50:33.863Z,9.23
2024-01-05T14:53:10.191Z,8.50
2024-01-05T14:55:39.365Z,9.70
2024-01-05T14:58:10.233Z,15.18
2024-01-05T15:00:38.070Z,6.35
2024-01-05T15:03:05.849Z,10.80
2024-01-05T15:05:35.366Z,9.35
2024-01-05T15:08:05.278Z,10.32
2024-01-05T15:21:39.861Z,14.88
2024-01-05T15:24:44.914Z,21.90
2024-01-05T15:44:20.699Z,22.80
2024-01-05T15:53:21.165Z,29.80
2024-01-05T15:56:11.692Z,35.92
2024-01-05T15:58:39.526Z,29.50
2024-01-05T16:01:08.188Z,31.80
2024-01-05T16:04:08.298Z,27.90
2024-01-05T16:06:35.961Z,30.35
2024-01-05T16:09:07.302Z,27.38
2024-01-05T16:11:34.507Z,28.52
2024-01-05T16:14:02.378Z,29.30
2024-01-05T16:16:29.383Z,36.60
2024-01-05T16:18:59.516Z,31.98
2024-01-05T16:21:28.672Z,31.58
2024-01-05T16:23:56.762Z,27.33
2024-01-05T16:26:24.523Z,27.50
2024-01-05T16:28:52.237Z,25.50
2024-01-05T16:31:21.098Z,21.17
2024-01-05T16:33:49.122Z,17.30
2024-01-05T16:36:17.446Z,24.73
2024-01-05T16:38:50.403Z,23.10
2024-01-05T16:41:25.292Z,23.50
2024-01-05T16:43:53.336Z,34.63
2024-01-05T16:46:23.042Z,22.05
2024-01-05T16:48:54.271Z,24.58
2024-01-05T16:51:24.583Z,25.55
2024-01-05T16:53:52.310Z,25.73
2024-01-05T16:56:26.247Z,25.75
2024-01-05T16:58:58.868Z,22.00
2024-01-05T17:01:26.390Z,23.05
2024-01-05T17:04:18.756Z,23.15
2024-01-05T17:06:50.713Z,27.08
2024-01-05T17:09:18.116Z,35.20
2024-01-05T17:11:45.053Z,33.67
2024-01-05T17:14:12.447Z,46.38
2024-01-05T17:16:39.450Z,33.53
2024-01-05T17:19:09.883Z,38.35
2024-01-05T17:21:40.373Z,32.00
2024-01-05T17:26:50.269Z,28.85
2024-01-05T17:29:18.389Z,23.52
2024-01-05T17:37:38.618Z,33.38
2024-01-05T17:40:06.322Z,28.75
2024-01-05T17:42:39.237Z,34.30
2024-01-05T17:45:08.194Z,34.33
2024-01-05T17:47:40.472Z,29.42
2024-01-05T17:50:10.256Z,28.13
2024-01-05T17:52:37.246Z,25.65
2024-01-05T17:55:04.775Z,24.92
2024-01-05T17:57:32.037Z,29.52
2024-01-05T18:02:41.678Z,32.38
2024-01-05T18:32:47.140Z,29.27
2024-01-05T18:35:21.243Z,28.50
2024-01-05T18:37:59.134Z,28.45
2024-01-05T18:49:10.873Z,27.58
2024-01-05T18:51:44.099Z,30.83
2024-01-05T19:08:48.406Z,25.83
2024-01-05T19:11:26.242Z,32.47
2024-01-05T19:13:55.582Z,29.00
2024-01-05T19:16:24.028Z,31.17
2024-01-05T19:18:51.895Z,34.13
2024-01-05T19:21:19.793Z,35.53
2024-01-05T19:23:46.861Z,40.50
2024-01-05T19:26:18.199Z,39.03
2024-01-05T19:28:45.734Z,39.80
2024-01-05T19:31:13.599Z,42.08
2024-01-05T19:33:40.846Z,43.13
2024-01-05T19:36:10.311Z,40.63
2024-01-05T19:38:37.616Z,45.50
2024-01-05T19:41:12.973Z,41.47
2024-01-05T19:43:48.827Z,43.58
2024-01-05T19:46:17.644Z,38.40
2024-01-05T19:48:45.170Z,40.97
2024-01-05T19:51:16.519Z,33.47
2024-01-05T19:53:47.312Z,31.25
2024-01-05T19:56:17.024Z,29.65
2024-01-05T19:58:44.077Z,26.13
2024-01-05T20:01:44.207Z,30.38
2024-01-05T20:12:38.854Z,17.92
2024-01-05T20:15:08.208Z,18.13
2024-01-05T20:17:42.567Z,16.38
2024-01-05T20:20:10.550Z,12.80
2024-01-05T20:22:45.649Z,17.40
2024-01-05T20:25:15.070Z,18.85
2024-01-05T20:27:56.623Z,20.08
2024-01-05T20:30:24.405Z,24.05
2024-01-05T20:32:54.802Z,24.40
2024-01-05T20:35:25.866Z,20.70
2024-01-05T20:37:53.913Z,24.20
2024-01-05T20:40:23.821Z,30.83
2024-01-05T20:42:53.838Z,22.10
2024-01-05T20:48:01.086Z,25.77
2024-01-05T20:50:33.402Z,34.47
2024-01-05T20:57:01.453Z,25.55
2024-01-05T20:59:28.666Z,26.13
2024-01-05T21:01:58.900Z,23.48
2024-01-05T21:04:26.591Z,28.10
2024-01-05T21:06:54.153Z,28.40
2024-01-05T21:09:21.788Z,37.17
2024-01-05T21:11:51.873Z,27.75
2024-01-05T21:14:25.305Z,27.98
2024-01-05T21:16:55.759Z,23.08
2024-01-05T21:19:23.165Z,25.75
2024-01-05T21:21:50.808Z,26.45
2024-01-05T21:24:20.818Z,29.77
2024-01-05T21:26:47.806Z,32.63
2024-01-05T21:29:18.862Z,21.08
2024-01-05T21:31:49.687Z,23.30
2024-01-05T21:34:20.790Z,19.10
2024-01-05T21:36:48.413Z,23.58
2024-01-05T21:39:18.720Z,20.25
2024-01-05T21:41:57.349Z,19.55
2024-01-05T21:44:37.017Z,18.10
2024-01-05T21:47:04.301Z,21.20
2024-01-05T21:49:40.806Z,21.60
2024-01-05T21:52:07.951Z,23.67
2024-01-05T21:54:36.349Z,25.67
2024-01-05T21:57:04.352Z,27.75
2024-01-05T21:59:47.046Z,32.88
2024-01-05T22:02:18.864Z,24.23
2024-01-05T22:04:46.569Z,30.80
2024-01-05T22:07:17.859Z,28.45
2024-01-05T22:09:45.547Z,28.08
2024-01-05T22:12:13.493Z,30.70
2024-01-05T22:14:40.560Z,27.42
2024-01-05T22:17:08.305Z,28.40
2024-01-05T22:19:36.665Z,31.70
2024-01-05T22:22:04.499Z,26.70
2024-01-05T22:24:31.823Z,25.92
2024-01-05T22:27:06.673Z,27.73
2024-01-05T22:29:35.786Z,27.08
2024-01-05T22:32:03.415Z,24.77
2024-01-05T22:34:33.308Z,29.08
2024-01-05T22:37:01.441Z,32.53
2024-01-05T22:39:28.444Z,21.23
2024-01-05T22:41:56.458Z,19.20
2024-01-05T22:44:23.727Z,20.58
2024-01-05T22:46:52.696Z,18.48
2024-01-05T22:49:20.069Z,20.45
2024-01-05T22:51:49.404Z,21.75
2024-01-05T22:54:16.592Z,27.90
2024-01-05T22:56:47.496Z,32.58
2024-01-05T22:59:14.527Z,22.05
2024-01-05T23:01:42.182Z,36.42
2024-01-05T23:04:10.490Z,33.38
2024-01-05T23:06:38.045Z,36.25
2024-01-05T23:09:05.312Z,35.40
2024-01-05T23:11:33.356Z,28.20
2024-01-05T23:14:00.557Z,26.83
2024-01-05T23:16:28.327Z,25.73
2024-01-05T23:18:55.521Z,32.00
2024-01-05T23:21:22.932Z,29.17
2024-01-05T23:23:49.993Z,28.48
2024-01-05T23:26:20.080Z,24.38
2024-01-05T23:28:47.530Z,24.33
2024-01-05T23:31:15.072Z,27.63
2024-01-05T23:33:42.310Z,28.70
2024-01-05T23:36:10.014Z,28.23
2024-01-05T23:38:37.132Z,24.42
2024-01-05T23:41:04.475Z,23.60
2024-01-05T23:43:31.426Z,24.42
2024-01-05T23:45:58.877Z,28.75
2024-01-05T23:48:25.875Z,24.25
2024-01-05T23:50:53.235Z,25.00
2024-01-05T23:53:20.270Z,22.17
2024-01-05T23:55:48.698Z,21.95
